createdAt,value
2018-11-11T00:01:58.953Z,95154.20
2018-11-11T00:04:27.622Z,95146.77
2018-11-11T00:06:56.252Z,95151.08
2018-11-11T00:09:25.014Z,95154.12
2018-11-11T00:11:53.692Z,95153.25
2018-11-11T00:14:22.324Z,95158.77
2018-11-11T00:16:50.969Z,95156.23
2018-11-11T00:19:19.621Z,95149.42
2018-11-11T00:21:48.292Z,95155.20
2018-11-11T00:24:17.090Z,95155.78
2018-11-11T00:26:45.745Z,95153.45
2018-11-11T00:29:14.381Z,95151.67
2018-11-11T00:31:43.081Z,95156.77
2018-11-11T00:34:11.777Z,95158.76
2018-11-11T00:36:40.425Z,95161.84
2018-11-11T00:39:10.469Z,95167.22
2018-11-11T00:41:39.242Z,95166.77
2018-11-11T00:44:07.945Z,95169.22
2018-11-11T00:46:36.704Z,95163.88
2018-11-11T00:49:05.719Z,95164.28
2018-11-11T00:51:34.363Z,95161.21
2018-11-11T00:54:03.131Z,95157.83
2018-11-11T00:56:31.893Z,95157.50
2018-11-11T00:59:00.536Z,95157.91
2018-11-11T01:01:29.255Z,95158.04
2018-11-11T01:03:57.952Z,95160.19
2018-11-11T01:06:26.616Z,95160.85
2018-11-11T01:08:55.271Z,95157.04
2018-11-11T01:11:24.024Z,95159.62
2018-11-11T01:13:52.674Z,95154.17
2018-11-11T01:16:21.387Z,95159.81
2018-11-11T01:18:50.077Z,95151.97
2018-11-11T01:21:18.692Z,95150.58
2018-11-11T01:23:47.391Z,95150.45
2018-11-11T01:26:15.984Z,95154.98
2018-11-11T01:28:44.697Z,95152.52
2018-11-11T01:31:13.405Z,95149.83
2018-11-11T01:33:42.049Z,95155.44
2018-11-11T01:36:10.760Z,95159.39
2018-11-11T01:38:39.449Z,95161.66
2018-11-11T01:41:08.109Z,95164.33
2018-11-11T01:43:36.837Z,95161.89
2018-11-11T01:46:05.758Z,95164.95
2018-11-11T01:48:34.405Z,95167.23
2018-11-11T01:51:03.092Z,95165.10
2018-11-11T01:53:31.730Z,95167.23
2018-11-11T01:56:00.391Z,95173.81
2018-11-11T01:58:29.051Z,95173.67
2018-11-11T02:00:57.709Z,95173.59
2018-11-11T02:03:26.423Z,95172.88
2018-11-11T02:05:55.174Z,95177.81
2018-11-11T02:08:23.848Z,95177.63
2018-11-11T02:10:52.464Z,95175.85
2018-11-11T02:13:21.125Z,95180.59
2018-11-11T02:15:50.172Z,95174.95
2018-11-11T02:18:18.858Z,95177.56
2018-11-11T02:20:48.324Z,95179.78
2018-11-11T02:23:17.066Z,95177.78
2018-11-11T02:25:45.691Z,95176.75
2018-11-11T02:28:14.321Z,95175.24
2018-11-11T02:30:42.992Z,95173.73
2018-11-11T02:33:11.650Z,95185.44
2018-11-11T02:35:40.281Z,95179.23
2018-11-11T02:38:08.960Z,95185.31
2018-11-11T02:40:37.880Z,95183.42
2018-11-11T02:43:06.540Z,95184.51
2018-11-11T02:45:35.843Z,95191.07
2018-11-11T02:48:04.496Z,95182.73
2018-11-11T02:50:33.295Z,95184.86
2018-11-11T02:53:01.944Z,95188.05
2018-11-11T02:55:30.596Z,95182.44
2018-11-11T02:57:59.327Z,95188.14
2018-11-11T03:00:28.003Z,95190.03
2018-11-11T03:02:56.669Z,95187.70
2018-11-11T03:05:25.316Z,95183.24
2018-11-11T03:07:53.940Z,95185.03
2018-11-11T03:10:22.611Z,95181.25
2018-11-11T03:12:51.753Z,95181.17
2018-11-11T03:15:20.725Z,95180.47
2018-11-11T03:17:49.422Z,95182.66
2018-11-11T03:20:18.516Z,95183.36
2018-11-11T03:22:47.185Z,95185.00
2018-11-11T03:25:16.569Z,95190.48
2018-11-11T03:27:45.245Z,95193.06
2018-11-11T03:30:15.367Z,95191.44
2018-11-11T03:32:44.040Z,95190.28
2018-11-11T03:35:13.548Z,95187.68
2018-11-11T03:37:42.853Z,95192.50
2018-11-11T03:40:15.465Z,95195.30
2018-11-11T03:42:44.916Z,95195.65
2018-11-11T03:45:15.074Z,95197.52
2018-11-11T03:47:44.734Z,95198.36
2018-11-11T03:50:13.484Z,95194.23
2018-11-11T03:52:42.462Z,95200.56
2018-11-11T03:55:11.547Z,95201.27
2018-11-11T03:57:40.297Z,95205.26
2018-11-11T04:00:10.929Z,95199.06
2018-11-11T04:02:39.712Z,95198.34
2018-11-11T04:05:09.924Z,95206.30
2018-11-11T04:07:38.799Z,95206.89
2018-11-11T04:10:09.545Z,95210.66
2018-11-11T04:12:38.558Z,95201.66
2018-11-11T04:15:08.898Z,95207.61
2018-11-11T04:17:38.129Z,95206.22
2018-11-11T04:20:08.604Z,95204.79
2018-11-11T04:22:37.257Z,95207.73
2018-11-11T04:25:06.090Z,95209.02
2018-11-11T04:27:34.954Z,95213.82
2018-11-11T04:30:07.556Z,95212.04
2018-11-11T04:32:36.217Z,95211.25
2018-11-11T04:35:05.546Z,95213.70
2018-11-11T04:37:34.201Z,95217.68
2018-11-11T04:40:02.877Z,95219.44
2018-11-11T04:42:31.548Z,95221.62
2018-11-11T04:45:00.173Z,95222.11
2018-11-11T04:47:28.841Z,95225.03
2018-11-11T04:49:57.475Z,95230.98
2018-11-11T04:52:26.114Z,95229.92
2018-11-11T04:54:54.756Z,95228.41
2018-11-11T04:57:23.378Z,95228.53
2018-11-11T04:59:52.017Z,95229.45
2018-11-11T05:02:20.655Z,95229.56
2018-11-11T05:04:49.701Z,95225.96
2018-11-11T05:07:18.292Z,95234.25
2018-11-11T05:09:46.922Z,95230.87
2018-11-11T05:12:15.555Z,95240.89
2018-11-11T05:14:44.248Z,95238.20
2018-11-11T05:17:13.045Z,95244.87
2018-11-11T05:19:41.745Z,95248.61
2018-11-11T05:22:10.392Z,95250.58
2018-11-11T05:24:39.044Z,95253.27
2018-11-11T05:27:07.722Z,95252.70
2018-11-11T05:29:36.363Z,95252.79
2018-11-11T05:32:05.346Z,95259.94
2018-11-11T05:34:33.986Z,95263.46
2018-11-11T05:37:02.639Z,95265.55
2018-11-11T05:39:31.295Z,95265.44
2018-11-11T05:41:59.936Z,95263.46
2018-11-11T05:44:28.593Z,95266.36
2018-11-11T05:46:57.282Z,95269.08
2018-11-11T05:49:26.152Z,95262.86
2018-11-11T05:51:54.822Z,95262.41
2018-11-11T05:54:23.477Z,95278.31
2018-11-11T05:56:52.101Z,95279.95
2018-11-11T05:59:20.877Z,95280.80
2018-11-11T06:01:49.593Z,95278.93
2018-11-11T06:04:18.313Z,95278.12
2018-11-11T06:06:46.954Z,95283.16
2018-11-11T06:09:15.572Z,95282.70
2018-11-11T06:11:44.236Z,95284.90
2018-11-11T06:14:12.894Z,95289.25
2018-11-11T06:16:41.632Z,95289.02
2018-11-11T06:19:10.270Z,95297.78
2018-11-11T06:21:38.985Z,95301.31
2018-11-11T06:24:07.660Z,95304.22
2018-11-11T06:26:36.426Z,95305.87
2018-11-11T06:29:05.135Z,95310.53
2018-11-11T06:31:33.785Z,95308.30
2018-11-11T06:34:02.467Z,95315.94
2018-11-11T06:36:31.175Z,95320.13
2018-11-11T06:38:59.825Z,95322.59
2018-11-11T06:41:28.493Z,95319.06
2018-11-11T06:43:57.123Z,95323.16
2018-11-11T06:46:25.765Z,95322.48
2018-11-11T06:48:54.459Z,95327.97
2018-11-11T06:51:23.168Z,95332.53
2018-11-11T06:53:51.834Z,95332.75
2018-11-11T06:56:20.564Z,95333.11
2018-11-11T06:58:49.202Z,95331.47
2018-11-11T07:01:17.841Z,95333.56
2018-11-11T07:03:54.156Z,95333.80
2018-11-11T07:06:23.373Z,95335.42
2018-11-11T07:08:52.163Z,95329.80
2018-11-11T07:11:20.876Z,95336.44
2018-11-11T07:13:49.658Z,95335.73
2018-11-11T07:16:18.326Z,95338.38
2018-11-11T07:18:47.677Z,95334.70
2018-11-11T07:21:17.170Z,95338.11
2018-11-11T07:23:46.471Z,95336.30
2018-11-11T07:26:16.606Z,95335.55
2018-11-11T07:28:45.352Z,95341.77
2018-11-11T07:31:14.080Z,95350.05
2018-11-11T07:33:42.796Z,95350.92
2018-11-11T07:36:12.235Z,95352.03
2018-11-11T07:38:40.805Z,95350.34
2018-11-11T07:41:09.970Z,95356.66
2018-11-11T07:43:39.087Z,95358.00
2018-11-11T07:46:07.980Z,95351.22
2018-11-11T07:48:36.693Z,95349.61
2018-11-11T07:51:05.676Z,95352.45
2018-11-11T07:53:34.357Z,95354.72
2018-11-11T07:56:03.089Z,95357.00
2018-11-11T07:58:32.040Z,95359.63
2018-11-11T08:01:00.631Z,95363.80
2018-11-11T08:03:29.501Z,95363.21
2018-11-11T08:05:59.250Z,95356.12
2018-11-11T08:08:27.972Z,95356.49
2018-11-11T08:11:07.819Z,95358.22
2018-11-11T09:23:11.077Z,95347.14
2018-11-11T09:25:39.829Z,95346.37
2018-11-11T09:28:08.584Z,95346.08
2018-11-11T09:30:37.365Z,95348.80
2018-11-11T09:33:06.293Z,95345.86
2018-11-11T09:35:35.178Z,95355.23
2018-11-11T09:38:03.977Z,95349.11
2018-11-11T09:40:32.687Z,95350.95
2018-11-11T09:43:01.456Z,95353.27
2018-11-11T09:45:30.250Z,95352.55
2018-11-11T09:47:59.011Z,95350.66
2018-11-11T09:50:27.737Z,95346.76
2018-11-11T09:52:56.462Z,95342.88
2018-11-11T09:55:25.175Z,95341.89
2018-11-11T09:57:53.839Z,95344.45
2018-11-11T10:00:23.092Z,95343.20
2018-11-11T10:02:57.193Z,95337.13
2018-11-11T10:05:31.786Z,95333.04
2018-11-11T10:08:08.796Z,95329.03
2018-11-11T10:11:11.902Z,95322.56
2018-11-11T10:13:45.709Z,95330.69
2018-11-11T10:16:19.601Z,95322.91
2018-11-11T10:19:10.586Z,95329.23
2018-11-11T10:21:46.117Z,95331.36
2018-11-11T10:24:33.041Z,95323.20
2018-11-11T10:27:07.508Z,95325.45
2018-11-11T10:30:11.522Z,95318.11
2018-11-11T10:33:01.585Z,95313.16
2018-11-11T10:35:34.548Z,95314.17
2018-11-11T10:38:11.280Z,95307.04
2018-11-11T10:40:52.149Z,95308.55
2018-11-11T10:43:28.168Z,95303.17
2018-11-11T10:46:06.606Z,95302.36
2018-11-11T10:48:46.369Z,95298.80
2018-11-11T10:51:15.093Z,95293.61
2018-11-11T10:53:44.536Z,95294.46
2018-11-11T10:56:13.265Z,95290.42
2018-11-11T10:58:41.959Z,95288.58
2018-11-11T11:01:15.843Z,95286.59
2018-11-11T11:03:44.504Z,95284.13
2018-11-11T11:06:13.314Z,95289.05
2018-11-11T11:08:47.269Z,95290.77
2018-11-11T11:11:17.030Z,95288.30
2018-11-11T11:13:45.704Z,95285.94
2018-11-11T11:16:14.475Z,95283.73
2018-11-11T11:18:43.090Z,95283.87
2018-11-11T11:21:11.764Z,95277.89
2018-11-11T11:23:40.457Z,95283.89
2018-11-11T11:26:09.259Z,95283.56
2018-11-11T11:30:58.154Z,95283.33
2018-11-11T11:33:27.199Z,95278.08
2018-11-11T11:35:55.893Z,95278.72
2018-11-11T11:38:24.620Z,95280.48
2018-11-11T11:40:53.306Z,95271.12
2018-11-11T11:43:21.958Z,95266.73
2018-11-11T11:45:50.654Z,95265.06
2018-11-11T11:48:19.303Z,95260.24
2018-11-11T11:50:47.941Z,95265.69
2018-11-11T11:53:16.679Z,95260.41
2018-11-11T11:55:45.354Z,95258.20
2018-11-11T11:58:19.629Z,95260.11
2018-11-11T12:00:48.273Z,95264.54
2018-11-11T12:03:17.066Z,95256.89
2018-11-11T12:05:46.404Z,95257.90
2018-11-11T12:08:15.130Z,95249.39
2018-11-11T12:10:44.037Z,95258.41
2018-11-11T12:13:13.725Z,95257.69
2018-11-11T12:15:43.146Z,95251.33
2018-11-11T12:18:12.157Z,95255.70
2018-11-11T12:20:41.243Z,95250.98
2018-11-11T12:23:10.223Z,95259.56
2018-11-11T12:25:39.454Z,95252.56
2018-11-11T12:28:08.465Z,95254.23
2018-11-11T12:30:37.249Z,95251.88
2018-11-11T12:33:06.375Z,95249.77
2018-11-11T12:35:38.356Z,95253.25
2018-11-11T12:38:07.086Z,95251.70
2018-11-11T12:40:35.759Z,95257.17
2018-11-11T12:43:04.478Z,95260.83
2018-11-11T12:45:33.147Z,95256.04
2018-11-11T12:48:01.866Z,95259.47
2018-11-11T12:50:30.686Z,95257.75
2018-11-11T12:52:59.264Z,95261.91
2018-11-11T12:55:28.079Z,95262.45
2018-11-11T12:57:56.669Z,95258.28
2018-11-11T13:00:25.375Z,95256.27
2018-11-11T13:02:54.012Z,95263.50
2018-11-11T13:05:22.687Z,95265.47
2018-11-11T13:07:51.379Z,95264.21
2018-11-11T13:10:20.142Z,95259.20
2018-11-11T13:12:48.874Z,95256.03
2018-11-11T13:15:17.869Z,95254.58
2018-11-11T13:17:46.543Z,95256.73
2018-11-11T13:20:17.345Z,95254.64
2018-11-11T13:22:46.176Z,95255.38
2018-11-11T13:25:15.175Z,95257.48
2018-11-11T13:27:43.880Z,95257.98
2018-11-11T13:30:13.950Z,95261.06
2018-11-11T13:32:42.640Z,95256.04
2018-11-11T13:35:13.839Z,95258.22
2018-11-11T13:37:43.023Z,95262.59
2018-11-11T13:40:14.293Z,95260.03
2018-11-11T13:42:43.045Z,95259.31
2018-11-11T13:45:21.919Z,95254.46
2018-11-11T13:47:51.088Z,95262.16
2018-11-11T13:50:22.082Z,95257.53
2018-11-11T13:52:50.830Z,95266.06
2018-11-11T13:55:20.065Z,95258.34
2018-11-11T13:57:49.168Z,95264.05
2018-11-11T14:00:20.278Z,95265.48
2018-11-11T14:02:48.974Z,95266.27
2018-11-11T14:05:18.380Z,95270.67
2018-11-11T14:07:47.125Z,95274.80
2018-11-11T14:10:16.277Z,95273.70
2018-11-11T14:12:45.113Z,95274.73
2018-11-11T14:15:18.857Z,95279.81
2018-11-11T14:17:47.974Z,95278.41
2018-11-11T14:20:17.929Z,95284.56
2018-11-11T14:22:48.444Z,95276.22
2018-11-11T14:25:20.014Z,95282.72
2018-11-11T14:27:48.651Z,95282.20
2018-11-11T14:30:19.796Z,95281.53
2018-11-11T14:32:49.364Z,95283.25
2018-11-11T14:35:18.076Z,95282.09
2018-11-11T14:37:47.221Z,95280.67
2018-11-11T14:40:18.870Z,95281.09
2018-11-11T14:42:47.681Z,95282.03
2018-11-11T14:45:16.988Z,95279.90
2018-11-11T14:47:46.718Z,95284.52
2018-11-11T14:50:16.647Z,95285.75
2018-11-11T14:52:45.833Z,95286.48
2018-11-11T14:55:17.016Z,95290.64
2018-11-11T14:57:45.701Z,95297.39
2018-11-11T15:00:20.654Z,95301.19
2018-11-11T15:03:09.565Z,95305.73
2018-11-11T15:05:38.321Z,95310.36
2018-11-11T15:08:07.133Z,95307.45
2018-11-11T15:10:35.809Z,95313.42
2018-11-11T15:13:04.579Z,95312.13
2018-11-11T15:15:33.276Z,95313.73
2018-11-11T15:18:02.459Z,95315.94
2018-11-11T15:20:31.723Z,95314.67
2018-11-11T15:23:00.381Z,95315.51
2018-11-11T15:25:29.940Z,95312.80
2018-11-11T15:27:58.699Z,95315.22
2018-11-11T15:30:28.747Z,95315.35
2018-11-11T15:32:58.030Z,95312.38
2018-11-11T15:35:26.691Z,95315.93
2018-11-11T15:37:55.352Z,95314.00
2018-11-11T15:40:26.495Z,95315.66
2018-11-11T15:42:55.371Z,95317.95
2018-11-11T15:45:25.364Z,95319.52
2018-11-11T15:47:54.249Z,95324.14
2018-11-11T15:50:24.984Z,95329.91
2018-11-11T15:52:54.783Z,95336.02
2018-11-11T15:55:24.834Z,95338.16
2018-11-11T15:57:53.637Z,95340.45
2018-11-11T16:00:23.802Z,95341.58
2018-11-11T16:02:52.473Z,95339.48
2018-11-11T16:05:21.336Z,95348.89
2018-11-11T16:07:50.974Z,95336.82
2018-11-11T16:10:21.068Z,95354.08
2018-11-11T16:12:49.948Z,95352.94
2018-11-11T16:15:21.123Z,95354.41
2018-11-11T16:17:51.194Z,95359.45
2018-11-11T16:20:21.319Z,95359.28
2018-11-11T16:22:51.124Z,95358.98
2018-11-11T16:25:19.884Z,95361.25
2018-11-11T16:27:49.084Z,95368.56
2018-11-11T16:30:19.490Z,95367.09
2018-11-11T16:32:48.893Z,95363.53
2018-11-11T16:35:18.666Z,95360.59
2018-11-11T16:37:47.308Z,95360.12
2018-11-11T16:42:30.626Z,95360.59
2018-11-11T16:44:59.370Z,95362.86
2018-11-11T16:47:27.993Z,95364.50
2018-11-11T16:49:56.729Z,95368.70
2018-11-11T16:52:25.374Z,95367.60
2018-11-11T16:54:54.013Z,95373.28
2018-11-11T16:57:22.730Z,95371.83
2018-11-11T16:59:51.413Z,95380.45
2018-11-11T17:02:20.058Z,95381.09
2018-11-11T17:04:48.685Z,95386.13
2018-11-11T17:07:17.335Z,95381.05
2018-11-11T17:09:46.013Z,95384.45
2018-11-11T17:12:14.977Z,95384.75
2018-11-11T17:14:43.777Z,95386.67
2018-11-11T17:17:12.602Z,95389.37
2018-11-11T17:19:41.912Z,95379.75
2018-11-11T17:22:11.009Z,95387.45
2018-11-11T17:24:39.401Z,95396.84
2018-11-11T17:27:08.068Z,95395.88
2018-11-11T17:29:36.779Z,95400.13
2018-11-11T17:32:06.214Z,95402.05
2018-11-11T17:34:34.897Z,95402.26
2018-11-11T17:37:03.745Z,95408.72
2018-11-11T17:39:32.562Z,95417.83
2018-11-11T17:42:01.202Z,95419.53
2018-11-11T17:44:29.827Z,95414.94
2018-11-11T17:46:58.469Z,95419.80
2018-11-11T17:49:27.214Z,95424.31
2018-11-11T17:51:55.941Z,95431.24
2018-11-11T17:54:24.645Z,95435.91
2018-11-11T17:56:53.310Z,95437.77
2018-11-11T17:59:21.942Z,95433.52
2018-11-11T18:01:53.189Z,95416.77
2018-11-11T18:04:21.995Z,95446.98
2018-11-11T18:06:50.679Z,95446.37
2018-11-11T18:09:19.322Z,95447.85
2018-11-11T18:11:48.141Z,95449.98
2018-11-11T18:14:16.849Z,95445.44
2018-11-11T18:16:45.488Z,95450.64
2018-11-11T18:19:14.276Z,95452.55
2018-11-11T18:21:42.956Z,95463.25
2018-11-11T18:24:11.634Z,95459.20
2018-11-11T18:26:40.325Z,95458.09
2018-11-11T18:29:09.106Z,95456.45
2018-11-11T18:31:37.820Z,95451.97
2018-11-11T18:34:06.587Z,95455.00
2018-11-11T18:36:35.289Z,95459.54
2018-11-11T18:39:04.989Z,95469.40
2018-11-11T18:41:33.790Z,95473.64
2018-11-11T18:44:02.467Z,95481.08
2018-11-11T18:46:31.111Z,95482.01
2018-11-11T18:48:59.833Z,95479.45
2018-11-11T18:51:28.437Z,95479.38
2018-11-11T18:53:57.080Z,95482.82
2018-11-11T18:56:25.762Z,95487.25
2018-11-11T18:58:54.981Z,95493.36
2018-11-11T19:01:27.880Z,95493.70
2018-11-11T19:03:56.538Z,95495.27
2018-11-11T19:06:25.303Z,95496.64
2018-11-11T19:08:53.968Z,95507.41
2018-11-11T19:11:22.589Z,95504.47
2018-11-11T19:13:51.236Z,95507.87
2018-11-11T19:16:19.850Z,95514.81
2018-11-11T19:18:48.680Z,95516.48
2018-11-11T19:21:17.480Z,95509.70
2018-11-11T19:23:47.373Z,95517.75
2018-11-11T19:26:16.031Z,95522.25
2018-11-11T19:28:44.779Z,95521.83
2018-11-11T19:31:13.434Z,95528.50
2018-11-11T19:33:42.141Z,95526.52
2018-11-11T19:36:10.757Z,95526.33
2018-11-11T19:38:39.846Z,95534.30
2018-11-11T19:41:08.949Z,95528.58
2018-11-11T19:43:38.032Z,95531.66
2018-11-11T19:46:06.831Z,95528.14
2018-11-11T19:48:35.586Z,95531.84
2018-11-11T19:51:04.630Z,95530.69
2018-11-11T19:53:33.324Z,95527.82
2018-11-11T19:56:02.617Z,95522.05
2018-11-11T19:58:31.301Z,95517.22
2018-11-11T20:01:00.026Z,95530.42
2018-11-11T20:03:28.704Z,95534.67
2018-11-11T20:05:57.435Z,95533.58
2018-11-11T20:08:26.427Z,95539.14
2018-11-11T20:10:55.121Z,95536.28
2018-11-11T20:13:23.815Z,95538.56
2018-11-11T20:15:52.828Z,95543.13
2018-11-11T20:18:21.734Z,95544.05
2018-11-11T20:20:50.423Z,95553.39
2018-11-11T20:23:20.126Z,95549.83
2018-11-11T20:25:48.988Z,95556.30
2018-11-11T20:28:17.658Z,95551.61
2018-11-11T20:30:46.422Z,95550.31
2018-11-11T20:33:15.099Z,95551.20
2018-11-11T20:35:43.796Z,95555.15
2018-11-11T20:38:12.365Z,95558.37
2018-11-11T20:40:41.056Z,95553.75
2018-11-11T20:43:09.832Z,95553.47
2018-11-11T20:45:38.810Z,95564.41
2018-11-11T20:48:07.545Z,95558.54
2018-11-11T20:50:36.205Z,95562.27
2018-11-11T20:53:06.049Z,95561.30
2018-11-11T20:55:34.797Z,95560.77
2018-11-11T20:58:03.777Z,95561.92
2018-11-11T21:00:34.076Z,95560.49
2018-11-11T21:03:02.749Z,95557.83
2018-11-11T21:05:31.531Z,95562.38
2018-11-11T21:08:00.568Z,95559.41
2018-11-11T21:10:29.942Z,95559.03
2018-11-11T21:12:59.366Z,95560.11
2018-11-11T21:15:29.281Z,95562.77
2018-11-11T21:17:57.959Z,95563.95
2018-11-11T21:20:29.162Z,95567.98
2018-11-11T21:22:57.859Z,95574.94
2018-11-11T21:25:26.622Z,95576.81
2018-11-11T21:27:55.286Z,95574.52
2018-11-11T21:30:29.084Z,95580.36
2018-11-11T21:32:57.909Z,95581.07
2018-11-11T21:35:26.552Z,95592.92
2018-11-11T21:37:55.250Z,95595.53
2018-11-11T21:40:25.182Z,95610.59
2018-11-11T21:42:54.852Z,95611.90
2018-11-11T21:45:24.559Z,95614.63
2018-11-11T21:47:53.238Z,95618.42
2018-11-11T21:50:24.197Z,95611.02
2018-11-11T21:53:00.344Z,95616.23
2018-11-11T21:55:28.931Z,95617.74
2018-11-11T21:57:57.585Z,95616.33
2018-11-11T22:00:26.252Z,95620.98
2018-11-11T22:02:54.996Z,95618.63
2018-11-11T22:05:23.618Z,95616.13
2018-11-11T22:07:56.652Z,95606.60
2018-11-11T22:10:25.285Z,95617.00
2018-11-11T22:12:53.943Z,95615.92
2018-11-11T22:15:22.613Z,95617.35
2018-11-11T22:17:51.286Z,95624.61
2018-11-11T22:20:19.973Z,95624.88
2018-11-11T22:22:48.692Z,95623.94
2018-11-11T22:25:17.374Z,95619.80
2018-11-11T22:27:46.007Z,95626.97
2018-11-11T22:30:14.664Z,95622.83
2018-11-11T22:32:43.288Z,95631.65
2018-11-11T22:35:12.261Z,95629.91
2018-11-11T22:37:40.973Z,95632.45
2018-11-11T22:40:11.497Z,95629.38
2018-11-11T22:42:40.197Z,95631.88
2018-11-11T22:45:12.720Z,95636.55
2018-11-11T22:47:41.780Z,95628.09
2018-11-11T22:50:12.383Z,95626.92
2018-11-11T22:52:44.459Z,95632.45
2018-11-11T22:55:13.388Z,95626.39
2018-11-11T22:57:42.585Z,95628.79
2018-11-11T23:00:19.363Z,95627.95
2018-11-11T23:02:48.113Z,95629.86
2018-11-11T23:05:18.003Z,95628.38
2018-11-11T23:07:46.937Z,95634.16
2018-11-11T23:10:15.724Z,95633.59
2018-11-11T23:12:44.462Z,95634.86
2018-11-11T23:15:14.626Z,95632.43
2018-11-11T23:17:43.330Z,95633.72
2018-11-11T23:20:13.902Z,95646.17
2018-11-11T23:22:42.883Z,95646.06
2018-11-11T23:25:13.032Z,95646.28
2018-11-11T23:27:41.921Z,95648.88
2018-11-11T23:30:12.912Z,95654.89
2018-11-11T23:32:41.615Z,95650.30
2018-11-11T23:35:10.952Z,95652.65
2018-11-11T23:37:39.756Z,95646.77
2018-11-11T23:40:10.047Z,95645.48
2018-11-11T23:42:38.764Z,95639.28
2018-11-11T23:45:07.518Z,95636.59
2018-11-11T23:47:36.512Z,95634.00
2018-11-11T23:50:06.166Z,95630.70
2018-11-11T23:52:34.808Z,95632.56
2018-11-11T23:55:03.549Z,95630.83
2018-11-11T23:57:32.465Z,95635.41
